Bridgeboro, New Jersey
Current Conditions -  °F | °C
As of 6:54 AM on Saturday 20 Dec 2014 (Local Time) from KPNE Reporting Station
Overcast Overcast  
Wind Chill: 25°   Ceiling: 2900
Heat Index: 33°   Visibility: 10mi
Dew Point: 20°   Wind: 9mph
Humidity: 59%   Direction: 10°N
Pressure: 30.27"   Gusts: NA
Location:  40.0192°N, 74.9489°W
Report Text: KPNE 201154Z AUTO 01008KT 10SM OVC029 01/M07 A3027 RMK AO2 SLP252 T00061067 10017 20006 51011 TSNO $
Loading
Personal Weather Stations






























Interactive Weather Map New forecast layout! Learn more

10-Day Weather Forecast

Advertisements
Track Severe Weather on mobile